Ripton, VT

2:42 PM EDT on October 21, 2014 (GMT -0400)
Breadloaf Campus-Ripton | Change Station
CLOSE
Current Station
Personal Weather Station
Location: Ripton, VT
Elevation: 1432 ft
Nearby Weather Stations

Elev 1432 ft 43.95 °N, 72.99 °W | Updated 7 seconds ago

Rain
Rain
46.7 °F
Feels Like 47 °F
N
1.0
Wind Variable Wind from South
Gusts 4.0 mph

Today
High -- | Low -- °F
--% Chance of Precip.
Yesterday
High -- | Low -- °F
Precip. -- in
7:14 AM 5:58 PM
Waning Crescent, 5% visible
Pressure 29.96 in
Visibility 7.0 miles
Clouds Scattered Clouds 500 ft
Mostly Cloudy 4000 ft
Overcast 6000 ft
Windchill 47 °F
Dew Point 44 °F
Humidity 89%
Rainfall 0.00 in
Snow Depth Not available.
UV 0.6 out of 12
Pollen .10 out of 12
Ozone Good
PM2.5 Good
Flu Activity Sporadic
METAR K6B0 211835Z AUTO 36004KT 7SM -RA SCT005 BKN040 OVC060 10/10 A2996 RMK AO2 P0001 T01020102

More Conditions Fewer Conditions

Pressure 29.96 in
Visibility 7.0 miles
Clouds Scattered Clouds 500 ft
Mostly Cloudy 4000 ft
Overcast 6000 ft
Windchill 47 °F
Dew Point 44 °F
Humidity 89%
Rainfall 0.00 in
Snow Depth Not available.
UV 0.6 out of 12
Pollen .10 out of 12
Ozone Good
PM2.5 Good
Flu Activity Sporadic
METAR K6B0 211835Z AUTO 36004KT 7SM -RA SCT005 BKN040 OVC060 10/10 A2996 RMK AO2 P0001 T01020102

More Conditions Fewer Conditions

10-Day Weather Forecast

Almanac

Astronomy

Oct. 21, 2014 Rise Set
Actual Time 7:14 AM EDT 5:58 PM EDT
Civil Twilight 6:44 AM EDT 6:27 PM EDT
Nautical Twilight 6:11 AM EDT 7:01 PM EDT
Astronomical Twilight 5:37 AM EDT 7:34 PM EDT
Moon 4:51 AM EDT 4:54 PM EDT
Length of Visible Light 11h 43m
Length of Day
10h 44m
Tomorrow will be 2m 51s shorter.
Waning Crescent, 5% of the Moon is Illuminated
Today
Waning Crescent
Oct 23
New
Oct 30
First Quarter
Nov 6
Full
Nov 14
Last Quarter

Today's Extremes

State Highs State Lows

Community

WunderPhotos

Upload Photos

1,763,742 photos uploaded!

Nearby

Air Quality

  Air Quality AQ Index Pollutant
Yesterday Good
PM2.5
Current Good
PM2.5
Current Good
OZONE
Tuesday Good
PM2.5
Wednesday Good
PM2.5

Snow Depth

Station Depth Elevation
No new snow has been reported.

Earthquake Activity

City Distance Mag. Time & Date
No recent earthquake activity has been reported nearby.
Minimum magnitude displayed is 2.5.

Coastal Water Temperatures

Place Temperature
No Stations Reporting

Nearby Weather Stations